sensor_id;sensor_type;location;lat;lon;timestamp;pressure;altitude;pressure_sealevel;temperature;humidity
23589;BME280;11972;48.078;11.876;2023-05-22T00:02:10;94930.28;;;13.33;100.00
23589;BME280;11972;48.078;11.876;2023-05-22T00:06:10;94939.34;;;13.25;100.00
23589;BME280;11972;48.078;11.876;2023-05-22T00:10:11;94937.06;;;13.22;100.00
23589;BME280;11972;48.078;11.876;2023-05-22T00:14:11;94938.50;;;13.25;100.00
23589;BME280;11972;48.078;11.876;2023-05-22T00:18:15;94940.56;;;13.23;100.00
23589;BME280;11972;48.078;11.876;2023-05-22T00:22:15;94933.81;;;13.20;100.00
23589;BME280;11972;48.078;11.876;2023-05-22T00:26:16;94933.88;;;13.13;100.00
23589;BME280;11972;48.078;11.876;2023-05-22T00:30:16;94940.16;;;13.12;100.00
23589;BME280;11972;48.078;11.876;2023-05-22T00:34:17;94936.53;;;13.07;100.00
23589;BME280;11972;48.078;11.876;2023-05-22T00:38:31;94932.09;;;13.01;100.00
23589;BME280;11972;48.078;11.876;2023-05-22T00:42:32;94934.34;;;12.97;100.00
23589;BME280;11972;48.078;11.876;2023-05-22T00:46:32;94932.75;;;12.89;100.00
23589;BME280;11972;48.078;11.876;2023-05-22T00:50:33;94934.59;;;12.82;100.00
23589;BME280;11972;48.078;11.876;2023-05-22T00:54:33;94930.16;;;12.76;100.00
23589;BME280;11972;48.078;11.876;2023-05-22T00:58:34;94925.88;;;12.75;100.00
23589;BME280;11972;48.078;11.876;2023-05-22T01:02:34;94926.31;;;12.72;100.00
23589;BME280;11972;48.078;11.876;2023-05-22T01:06:36;94921.81;;;12.66;100.00
23589;BME280;11972;48.078;11.876;2023-05-22T01:10:38;94924.06;;;12.62;100.00
23589;BME280;11972;48.078;11.876;2023-05-22T01:14:46;94932.47;;;12.59;100.00
23589;BME280;11972;48.078;11.876;2023-05-22T01:23:30;94935.53;;;12.50;100.00
23589;BME280;11972;48.078;11.876;2023-05-22T01:31:54;94945.53;;;12.48;100.00
23589;BME280;11972;48.078;11.876;2023-05-22T01:35:59;94941.06;;;12.41;100.00
23589;BME280;11972;48.078;11.876;2023-05-22T01:40:01;94949.44;;;12.32;100.00
23589;BME280;11972;48.078;11.876;2023-05-22T01:44:01;94951.91;;;12.27;100.00
23589;BME280;11972;48.078;11.876;2023-05-22T01:48:02;94950.28;;;12.19;100.00
23589;BME280;11972;48.078;11.876;2023-05-22T01:52:50;94952.53;;;12.15;100.00
23589;BME280;11972;48.078;11.876;2023-05-22T01:56:58;94958.00;;;12.01;100.00
23589;BME280;11972;48.078;11.876;2023-05-22T02:01:02;94953.13;;;11.84;100.00
23589;BME280;11972;48.078;11.876;2023-05-22T02:05:03;94963.72;;;11.78;100.00
23589;BME280;11972;48.078;11.876;2023-05-22T02:09:05;94955.16;;;11.69;100.00
23589;BME280;11972;48.078;11.876;2023-05-22T02:13:07;94954.94;;;11.64;100.00
23589;BME280;11972;48.078;11.876;2023-05-22T02:17:08;94953.69;;;11.60;100.00
23589;BME280;11972;48.078;11.876;2023-05-22T02:21:08;94951.47;;;11.57;100.00
23589;BME280;11972;48.078;11.876;2023-05-22T02:25:10;94953.31;;;11.56;100.00
23589;BME280;11972;48.078;11.876;2023-05-22T02:29:13;94952.88;;;11.59;100.00
23589;BME280;11972;48.078;11.876;2023-05-22T02:33:13;94959.19;;;11.58;100.00
23589;BME280;11972;48.078;11.876;2023-05-22T02:37:17;94953.31;;;11.56;100.00
23589;BME280;11972;48.078;11.876;2023-05-22T02:41:17;94958.81;;;11.48;100.00
23589;BME280;11972;48.078;11.876;2023-05-22T02:45:18;94969.75;;;11.38;100.00
23589;BME280;11972;48.078;11.876;2023-05-22T02:49:18;94976.66;;;11.39;100.00
23589;BME280;11972;48.078;11.876;2023-05-22T02:53:18;94972.19;;;11.33;100.00
23589;BME280;11972;48.078;11.876;2023-05-22T02:57:19;94976.22;;;11.23;100.00
23589;BME280;11972;48.078;11.876;2023-05-22T03:01:19;94975.19;;;11.17;100.00
23589;BME280;11972;48.078;11.876;2023-05-22T03:05:22;94970.09;;;11.09;100.00
23589;BME280;11972;48.078;11.876;2023-05-22T03:09:22;94967.84;;;11.06;100.00
23589;BME280;11972;48.078;11.876;2023-05-22T03:13:23;94974.09;;;10.98;100.00
23589;BME280;11972;48.078;11.876;2023-05-22T03:17:23;94979.97;;;10.93;100.00
23589;BME280;11972;48.078;11.876;2023-05-22T03:21:24;94977.50;;;10.85;100.00
23589;BME280;11972;48.078;11.876;2023-05-22T03:25:24;94975.66;;;10.79;100.00
23589;BME280;11972;48.078;11.876;2023-05-22T03:29:25;94975.25;;;10.76;100.00
23589;BME280;11972;48.078;11.876;2023-05-22T03:33:25;94984.19;;;10.75;100.00
23589;BME280;11972;48.078;11.876;2023-05-22T03:37:25;94976.44;;;10.73;100.00
23589;BME280;11972;48.078;11.876;2023-05-22T03:41:26;94979.50;;;10.70;100.00
23589;BME280;11972;48.078;11.876;2023-05-22T03:45:26;94971.56;;;10.70;100.00
23589;BME280;11972;48.078;11.876;2023-05-22T03:49:26;94981.34;;;10.76;100.00
23589;BME280;11972;48.078;11.876;2023-05-22T03:53:28;94984.19;;;10.81;100.00
23589;BME280;11972;48.078;11.876;2023-05-22T03:57:28;94989.72;;;10.86;100.00
23589;BME280;11972;48.078;11.876;2023-05-22T04:01:28;94990.53;;;10.93;100.00
23589;BME280;11972;48.078;11.876;2023-05-22T04:05:31;94994.44;;;10.98;100.00
23589;BME280;11972;48.078;11.876;2023-05-22T04:09:31;94991.44;;;11.07;100.00
23589;BME280;11972;48.078;11.876;2023-05-22T04:13:31;95000.63;;;11.25;100.00
23589;BME280;11972;48.078;11.876;2023-05-22T04:17:32;94992.75;;;11.45;100.00
23589;BME280;11972;48.078;11.876;2023-05-22T04:21:33;94991.75;;;11.59;100.00
23589;BME280;11972;48.078;11.876;2023-05-22T04:25:33;94992.78;;;11.71;100.00
23589;BME280;11972;48.078;11.876;2023-05-22T04:29:35;94997.13;;;11.85;100.00
23589;BME280;11972;48.078;11.876;2023-05-22T04:33:36;95005.47;;;12.02;100.00
23589;BME280;11972;48.078;11.876;2023-05-22T04:37:38;95005.66;;;12.21;100.00
23589;BME280;11972;48.078;11.876;2023-05-22T04:41:44;95006.06;;;12.44;100.00
23589;BME280;11972;48.078;11.876;2023-05-22T04:45:45;95002.94;;;12.67;100.00
23589;BME280;11972;48.078;11.876;2023-05-22T04:49:45;95015.31;;;12.86;100.00
23589;BME280;11972;48.078;11.876;2023-05-22T04:53:45;95014.03;;;13.09;100.00
23589;BME280;11972;48.078;11.876;2023-05-22T04:57:48;95016.19;;;13.32;100.00
23589;BME280;11972;48.078;11.876;2023-05-22T05:01:49;95015.47;;;13.56;100.00
23589;BME280;11972;48.078;11.876;2023-05-22T05:05:49;95023.06;;;13.84;100.00
23589;BME280;11972;48.078;11.876;2023-05-22T05:09:50;95013.50;;;14.08;100.00
23589;BME280;11972;48.078;11.876;2023-05-22T05:13:50;95013.72;;;14.32;100.00
23589;BME280;11972;48.078;11.876;2023-05-22T05:17:50;95014.75;;;14.56;100.00
23589;BME280;11972;48.078;11.876;2023-05-22T05:21:51;95016.53;;;14.80;100.00
23589;BME280;11972;48.078;11.876;2023-05-22T05:25:51;95008.72;;;15.04;100.00
23589;BME280;11972;48.078;11.876;2023-05-22T05:29:51;95006.66;;;15.24;100.00
23589;BME280;11972;48.078;11.876;2023-05-22T05:33:52;95008.75;;;15.52;100.00
23589;BME280;11972;48.078;11.876;2023-05-22T05:37:53;95002.38;;;15.83;100.00
23589;BME280;11972;48.078;11.876;2023-05-22T05:41:54;95009.06;;;16.16;100.00
23589;BME280;11972;48.078;11.876;2023-05-22T05:45:54;95006.19;;;16.41;100.00
23589;BME280;11972;48.078;11.876;2023-05-22T05:49:54;95000.06;;;16.64;100.00
23589;BME280;11972;48.078;11.876;2023-05-22T05:53:55;94997.63;;;16.86;100.00
23589;BME280;11972;48.078;11.876;2023-05-22T05:57:55;94994.22;;;17.14;100.00
23589;BME280;11972;48.078;11.876;2023-05-22T06:01:55;94994.25;;;17.43;100.00
23589;BME280;11972;48.078;11.876;2023-05-22T06:05:56;94994.75;;;17.68;100.00
23589;BME280;11972;48.078;11.876;2023-05-22T06:09:57;95002.75;;;17.97;100.00
23589;BME280;11972;48.078;11.876;2023-05-22T06:13:57;95010.72;;;18.25;100.00
23589;BME280;11972;48.078;11.876;2023-05-22T06:18:02;95010.09;;;18.52;100.00
23589;BME280;11972;48.078;11.876;2023-05-22T06:22:02;95004.03;;;18.73;100.00
23589;BME280;11972;48.078;11.876;2023-05-22T06:26:02;95012.66;;;18.97;100.00
23589;BME280;11972;48.078;11.876;2023-05-22T06:30:04;95005.13;;;19.16;100.00
23589;BME280;11972;48.078;11.876;2023-05-22T06:34:05;95005.88;;;19.33;100.00
23589;BME280;11972;48.078;11.876;2023-05-22T06:38:05;95003.16;;;19.50;100.00
23589;BME280;11972;48.078;11.876;2023-05-22T06:42:06;95011.63;;;19.64;100.00
23589;BME280;11972;48.078;11.876;2023-05-22T06:46:06;95009.34;;;19.78;100.00
23589;BME280;11972;48.078;11.876;2023-05-22T06:50:07;95017.28;;;19.95;100.00
23589;BME280;11972;48.078;11.876;2023-05-22T06:54:09;95021.75;;;20.11;100.00
23589;BME280;11972;48.078;11.876;2023-05-22T06:58:11;95022.97;;;20.25;100.00
23589;BME280;11972;48.078;11.876;2023-05-22T07:02:11;95030.00;;;20.37;100.00
23589;BME280;11972;48.078;11.876;2023-05-22T07:06:12;95039.63;;;20.32;100.00
23589;BME280;11972;48.078;11.876;2023-05-22T07:10:12;95032.91;;;20.30;100.00
23589;BME280;11972;48.078;11.876;2023-05-22T07:14:13;95028.91;;;20.32;100.00
23589;BME280;11972;48.078;11.876;2023-05-22T07:18:13;95037.06;;;20.43;100.00
23589;BME280;11972;48.078;11.876;2023-05-22T07:22:14;95031.84;;;20.58;100.00
23589;BME280;11972;48.078;11.876;2023-05-22T07:26:14;95043.75;;;20.72;100.00
23589;BME280;11972;48.078;11.876;2023-05-22T07:30:15;95037.84;;;20.70;100.00
23589;BME280;11972;48.078;11.876;2023-05-22T07:34:15;95037.56;;;20.72;100.00
23589;BME280;11972;48.078;11.876;2023-05-22T07:38:16;95041.63;;;20.74;100.00
23589;BME280;11972;48.078;11.876;2023-05-22T07:42:17;95033.31;;;20.76;100.00
23589;BME280;11972;48.078;11.876;2023-05-22T07:46:17;95037.38;;;20.78;100.00
23589;BME280;11972;48.078;11.876;2023-05-22T07:50:17;95043.03;;;20.82;100.00
23589;BME280;11972;48.078;11.876;2023-05-22T07:54:18;95047.66;;;20.92;100.00
23589;BME280;11972;48.078;11.876;2023-05-22T07:58:18;95049.91;;;21.10;100.00
23589;BME280;11972;48.078;11.876;2023-05-22T08:02:19;95041.59;;;21.12;100.00
23589;BME280;11972;48.078;11.876;2023-05-22T08:06:19;95042.41;;;21.12;100.00
23589;BME280;11972;48.078;11.876;2023-05-22T08:10:22;95038.19;;;21.26;100.00
23589;BME280;11972;48.078;11.876;2023-05-22T08:14:22;95028.53;;;21.30;100.00
23589;BME280;11972;48.078;11.876;2023-05-22T08:18:22;95034.53;;;21.43;100.00
23589;BME280;11972;48.078;11.876;2023-05-22T08:22:28;95037.50;;;21.51;100.00
23589;BME280;11972;48.078;11.876;2023-05-22T08:26:31;95030.31;;;21.62;100.00
23589;BME280;11972;48.078;11.876;2023-05-22T08:30:32;95026.56;;;21.68;100.00
23589;BME280;11972;48.078;11.876;2023-05-22T08:34:33;95025.25;;;21.76;100.00
23589;BME280;11972;48.078;11.876;2023-05-22T08:38:34;95026.31;;;21.75;100.00
23589;BME280;11972;48.078;11.876;2023-05-22T08:42:34;95027.47;;;21.89;100.00
23589;BME280;11972;48.078;11.876;2023-05-22T08:46:36;95021.56;;;22.02;100.00
23589;BME280;11972;48.078;11.876;2023-05-22T08:50:41;95013.81;;;22.16;100.00
23589;BME280;11972;48.078;11.876;2023-05-22T08:54:49;95018.66;;;22.29;100.00
23589;BME280;11972;48.078;11.876;2023-05-22T08:58:51;95022.97;;;22.46;100.00
23589;BME280;11972;48.078;11.876;2023-05-22T09:02:52;95024.06;;;22.55;100.00
23589;BME280;11972;48.078;11.876;2023-05-22T09:06:54;95025.66;;;22.61;100.00
23589;BME280;11972;48.078;11.876;2023-05-22T09:10:55;95019.75;;;22.64;100.00
23589;BME280;11972;48.078;11.876;2023-05-22T09:14:55;95022.41;;;22.90;100.00
23589;BME280;11972;48.078;11.876;2023-05-22T09:18:58;95015.72;;;22.97;100.00
23589;BME280;11972;48.078;11.876;2023-05-22T09:22:58;95016.50;;;23.03;100.00
23589;BME280;11972;48.078;11.876;2023-05-22T09:27:02;95018.63;;;23.16;100.00
23589;BME280;11972;48.078;11.876;2023-05-22T09:31:05;95010.25;;;23.33;100.00
23589;BME280;11972;48.078;11.876;2023-05-22T09:35:05;95013.19;;;23.32;100.00
23589;BME280;11972;48.078;11.876;2023-05-22T09:39:06;95005.09;;;23.32;100.00
23589;BME280;11972;48.078;11.876;2023-05-22T09:43:08;95010.44;;;23.47;100.00
23589;BME280;11972;48.078;11.876;2023-05-22T09:47:09;95012.09;;;23.43;100.00
23589;BME280;11972;48.078;11.876;2023-05-22T09:51:10;95011.50;;;23.51;100.00
23589;BME280;11972;48.078;11.876;2023-05-22T09:55:12;95011.19;;;23.63;100.00
23589;BME280;11972;48.078;11.876;2023-05-22T09:59:13;95015.25;;;23.70;100.00
23589;BME280;11972;48.078;11.876;2023-05-22T10:03:21;95028.06;;;23.89;100.00
23589;BME280;11972;48.078;11.876;2023-05-22T10:07:29;95016.66;;;24.02;100.00
23589;BME280;11972;48.078;11.876;2023-05-22T10:11:32;95007.97;;;24.15;100.00
23589;BME280;11972;48.078;11.876;2023-05-22T10:15:33;95009.84;;;24.15;100.00
23589;BME280;11972;48.078;11.876;2023-05-22T10:19:34;95003.28;;;24.26;100.00
23589;BME280;11972;48.078;11.876;2023-05-22T10:23:35;95009.88;;;24.54;100.00
23589;BME280;11972;48.078;11.876;2023-05-22T10:27:37;95016.31;;;24.58;100.00
23589;BME280;11972;48.078;11.876;2023-05-22T10:31:41;94996.31;;;24.59;100.00
23589;BME280;11972;48.078;11.876;2023-05-22T10:35:49;95004.84;;;24.71;100.00
23589;BME280;11972;48.078;11.876;2023-05-22T10:40:03;95000.13;;;24.87;100.00
23589;BME280;11972;48.078;11.876;2023-05-22T10:44:07;94996.19;;;25.04;100.00
23589;BME280;11972;48.078;11.876;2023-05-22T10:48:08;94990.47;;;25.05;100.00
23589;BME280;11972;48.078;11.876;2023-05-22T10:52:11;94994.84;;;25.01;100.00
23589;BME280;11972;48.078;11.876;2023-05-22T10:56:15;94989.16;;;25.03;100.00
23589;BME280;11972;48.078;11.876;2023-05-22T11:00:16;94985.19;;;24.95;100.00
23589;BME280;11972;48.078;11.876;2023-05-22T11:04:18;94982.97;;;25.02;100.00
23589;BME280;11972;48.078;11.876;2023-05-22T11:12:25;94983.41;;;25.14;100.00
23589;BME280;11972;48.078;11.876;2023-05-22T11:16:31;94983.84;;;25.21;100.00
23589;BME280;11972;48.078;11.876;2023-05-22T11:20:35;94984.56;;;25.03;100.00
23589;BME280;11972;48.078;11.876;2023-05-22T11:24:36;94980.22;;;25.07;100.00
23589;BME280;11972;48.078;11.876;2023-05-22T11:28:37;94979.47;;;25.25;100.00
23589;BME280;11972;48.078;11.876;2023-05-22T11:32:39;94978.75;;;25.20;100.00
23589;BME280;11972;48.078;11.876;2023-05-22T11:36:43;94981.56;;;25.34;100.00
23589;BME280;11972;48.078;11.876;2023-05-22T11:40:43;94978.91;;;25.53;100.00
23589;BME280;11972;48.078;11.876;2023-05-22T11:44:43;94964.84;;;25.50;100.00
23589;BME280;11972;48.078;11.876;2023-05-22T11:48:44;94961.00;;;25.81;100.00
23589;BME280;11972;48.078;11.876;2023-05-22T11:52:46;94955.06;;;25.79;100.00
23589;BME280;11972;48.078;11.876;2023-05-22T11:56:47;94956.22;;;25.72;100.00
23589;BME280;11972;48.078;11.876;2023-05-22T12:00:47;94960.34;;;25.65;100.00
23589;BME280;11972;48.078;11.876;2023-05-22T12:04:52;94967.47;;;25.80;100.00
23589;BME280;11972;48.078;11.876;2023-05-22T12:08:53;94960.50;;;25.73;100.00
23589;BME280;11972;48.078;11.876;2023-05-22T12:12:53;94953.78;;;25.71;100.00
23589;BME280;11972;48.078;11.876;2023-05-22T12:16:54;94955.19;;;25.87;100.00
23589;BME280;11972;48.078;11.876;2023-05-22T12:20:54;94953.19;;;25.74;100.00
23589;BME280;11972;48.078;11.876;2023-05-22T12:24:55;94956.22;;;25.72;100.00
23589;BME280;11972;48.078;11.876;2023-05-22T12:28:57;94938.34;;;25.71;100.00
23589;BME280;11972;48.078;11.876;2023-05-22T12:32:57;94944.28;;;25.73;100.00
23589;BME280;11972;48.078;11.876;2023-05-22T12:36:58;94946.28;;;25.87;100.00
23589;BME280;11972;48.078;11.876;2023-05-22T12:40:58;94946.66;;;25.80;100.00
23589;BME280;11972;48.078;11.876;2023-05-22T12:44:59;94944.75;;;25.81;100.00
23589;BME280;11972;48.078;11.876;2023-05-22T12:49:00;94939.28;;;25.86;100.00
23589;BME280;11972;48.078;11.876;2023-05-22T12:53:01;94929.69;;;25.93;100.00
23589;BME280;11972;48.078;11.876;2023-05-22T12:57:01;94933.78;;;25.91;100.00
23589;BME280;11972;48.078;11.876;2023-05-22T13:01:01;94930.72;;;25.97;100.00
23589;BME280;11972;48.078;11.876;2023-05-22T13:05:03;94926.97;;;26.12;100.00
23589;BME280;11972;48.078;11.876;2023-05-22T13:09:04;94934.66;;;26.57;100.00
23589;BME280;11972;48.078;11.876;2023-05-22T13:13:04;94924.56;;;26.76;100.00
23589;BME280;11972;48.078;11.876;2023-05-22T13:17:05;94919.47;;;27.02;100.00
23589;BME280;11972;48.078;11.876;2023-05-22T13:21:05;94915.25;;;26.82;100.00
23589;BME280;11972;48.078;11.876;2023-05-22T13:25:06;94916.50;;;27.17;100.00
23589;BME280;11972;48.078;11.876;2023-05-22T13:29:07;94909.78;;;27.29;100.00
23589;BME280;11972;48.078;11.876;2023-05-22T13:33:07;94917.16;;;27.09;100.00
23589;BME280;11972;48.078;11.876;2023-05-22T13:37:08;94919.38;;;26.93;100.00
23589;BME280;11972;48.078;11.876;2023-05-22T13:41:09;94911.75;;;27.09;100.00
23589;BME280;11972;48.078;11.876;2023-05-22T13:45:10;94909.56;;;27.25;100.00
23589;BME280;11972;48.078;11.876;2023-05-22T13:49:10;94903.06;;;27.90;100.00
23589;BME280;11972;48.078;11.876;2023-05-22T13:53:10;94906.38;;;28.09;100.00
23589;BME280;11972;48.078;11.876;2023-05-22T13:57:11;94902.94;;;28.17;100.00
23589;BME280;11972;48.078;11.876;2023-05-22T14:01:11;94900.13;;;28.45;100.00
23589;BME280;11972;48.078;11.876;2023-05-22T14:05:11;94896.72;;;28.71;99.23
23589;BME280;11972;48.078;11.876;2023-05-22T14:09:12;94894.22;;;29.05;96.41
23589;BME280;11972;48.078;11.876;2023-05-22T14:13:12;94891.00;;;29.03;93.79
23589;BME280;11972;48.078;11.876;2023-05-22T14:17:14;94887.41;;;28.94;97.30
23589;BME280;11972;48.078;11.876;2023-05-22T14:21:14;94893.25;;;28.25;100.00
23589;BME280;11972;48.078;11.876;2023-05-22T14:25:15;94892.94;;;28.49;100.00
23589;BME280;11972;48.078;11.876;2023-05-22T14:29:15;94906.78;;;28.39;99.58
23589;BME280;11972;48.078;11.876;2023-05-22T14:33:15;94885.16;;;28.34;99.64
23589;BME280;11972;48.078;11.876;2023-05-22T14:37:16;94905.44;;;28.14;99.51
23589;BME280;11972;48.078;11.876;2023-05-22T14:41:17;94903.38;;;28.56;97.66
23589;BME280;11972;48.078;11.876;2023-05-22T14:45:18;94899.81;;;29.75;100.00
23589;BME280;11972;48.078;11.876;2023-05-22T14:49:18;94903.63;;;30.60;94.01
23589;BME280;11972;48.078;11.876;2023-05-22T14:53:19;94914.41;;;30.39;86.67
23589;BME280;11972;48.078;11.876;2023-05-22T14:57:19;94909.88;;;29.57;89.31
23589;BME280;11972;48.078;11.876;2023-05-22T15:01:20;94907.38;;;30.12;92.77
23589;BME280;11972;48.078;11.876;2023-05-22T15:05:20;94919.03;;;30.56;93.01
23589;BME280;11972;48.078;11.876;2023-05-22T15:09:20;94920.13;;;31.37;93.35
23589;BME280;11972;48.078;11.876;2023-05-22T15:13:21;94915.63;;;32.12;95.02
23589;BME280;11972;48.078;11.876;2023-05-22T15:17:21;94911.91;;;33.17;91.32
23589;BME280;11972;48.078;11.876;2023-05-22T15:21:21;94911.53;;;32.60;87.55
23589;BME280;11972;48.078;11.876;2023-05-22T15:25:22;94920.88;;;31.97;86.19
23589;BME280;11972;48.078;11.876;2023-05-22T15:29:22;94924.59;;;32.13;86.01
23589;BME280;11972;48.078;11.876;2023-05-22T15:33:23;94922.66;;;32.13;86.85
23589;BME280;11972;48.078;11.876;2023-05-22T15:37:23;94914.59;;;32.59;81.39
23589;BME280;11972;48.078;11.876;2023-05-22T15:41:24;94922.28;;;32.03;79.82
23589;BME280;11972;48.078;11.876;2023-05-22T15:45:24;94919.06;;;31.12;76.17
23589;BME280;11972;48.078;11.876;2023-05-22T15:49:25;94910.56;;;30.06;79.52
23589;BME280;11972;48.078;11.876;2023-05-22T15:53:25;94894.13;;;29.28;85.96
23589;BME280;11972;48.078;11.876;2023-05-22T15:57:26;94894.44;;;28.95;88.12
23589;BME280;11972;48.078;11.876;2023-05-22T16:01:29;94886.22;;;30.44;85.68
23589;BME280;11972;48.078;11.876;2023-05-22T16:05:30;94878.34;;;31.45;73.53
23589;BME280;11972;48.078;11.876;2023-05-22T16:09:33;94886.66;;;31.10;69.59
23589;BME280;11972;48.078;11.876;2023-05-22T16:13:35;94883.38;;;31.34;67.41
23589;BME280;11972;48.078;11.876;2023-05-22T16:17:36;94885.94;;;30.93;65.89
23589;BME280;11972;48.078;11.876;2023-05-22T16:21:37;94881.91;;;30.08;69.18
23589;BME280;11972;48.078;11.876;2023-05-22T16:25:37;94887.28;;;29.39;69.53
23589;BME280;11972;48.078;11.876;2023-05-22T16:29:38;94886.63;;;30.81;76.56
23589;BME280;11972;48.078;11.876;2023-05-22T16:33:38;94879.44;;;30.59;64.19
23589;BME280;11972;48.078;11.876;2023-05-22T16:37:38;94880.22;;;30.68;68.67
23589;BME280;11972;48.078;11.876;2023-05-22T16:41:40;94874.69;;;32.25;58.67
23589;BME280;11972;48.078;11.876;2023-05-22T16:45:40;94865.72;;;33.15;49.61
23589;BME280;11972;48.078;11.876;2023-05-22T16:49:45;94865.81;;;33.68;45.17
23589;BME280;11972;48.078;11.876;2023-05-22T16:53:45;94865.81;;;34.48;48.46
23589;BME280;11972;48.078;11.876;2023-05-22T16:57:46;94862.16;;;34.44;43.75
23589;BME280;11972;48.078;11.876;2023-05-22T17:01:46;94864.81;;;34.13;39.98
23589;BME280;11972;48.078;11.876;2023-05-22T17:05:47;94866.00;;;32.77;36.99
23589;BME280;11972;48.078;11.876;2023-05-22T17:09:48;94866.19;;;32.59;39.66
23589;BME280;11972;48.078;11.876;2023-05-22T17:13:48;94869.84;;;32.64;47.03
23589;BME280;11972;48.078;11.876;2023-05-22T17:17:48;94867.22;;;33.13;59.12
23589;BME280;11972;48.078;11.876;2023-05-22T17:21:49;94861.63;;;33.33;60.06
23589;BME280;11972;48.078;11.876;2023-05-22T17:25:49;94857.84;;;33.14;58.88
23589;BME280;11972;48.078;11.876;2023-05-22T17:29:50;94863.56;;;33.21;60.09
23589;BME280;11972;48.078;11.876;2023-05-22T17:33:50;94864.47;;;33.00;61.54
23589;BME280;11972;48.078;11.876;2023-05-22T17:37:50;94864.34;;;32.51;63.96
23589;BME280;11972;48.078;11.876;2023-05-22T17:41:51;94874.75;;;31.53;67.47
23589;BME280;11972;48.078;11.876;2023-05-22T17:45:52;94877.44;;;30.12;72.11
23589;BME280;11972;48.078;11.876;2023-05-22T17:49:53;94872.50;;;28.83;79.63
23589;BME280;11972;48.078;11.876;2023-05-22T17:53:53;94873.44;;;27.80;87.18
23589;BME280;11972;48.078;11.876;2023-05-22T17:57:55;94876.44;;;27.14;90.79
23589;BME280;11972;48.078;11.876;2023-05-22T18:01:55;94878.91;;;26.37;95.17
23589;BME280;11972;48.078;11.876;2023-05-22T18:05:56;94876.34;;;25.80;99.72
23589;BME280;11972;48.078;11.876;2023-05-22T18:09:56;94873.59;;;25.23;100.00
23589;BME280;11972;48.078;11.876;2023-05-22T18:13:56;94881.63;;;24.81;100.00
23589;BME280;11972;48.078;11.876;2023-05-22T18:17:57;94887.19;;;24.36;100.00
23589;BME280;11972;48.078;11.876;2023-05-22T18:21:58;94888.16;;;23.82;100.00
23589;BME280;11972;48.078;11.876;2023-05-22T18:25:58;94891.19;;;23.21;100.00
23589;BME280;11972;48.078;11.876;2023-05-22T18:29:58;94905.66;;;22.60;100.00
23589;BME280;11972;48.078;11.876;2023-05-22T18:33:58;94899.19;;;22.05;100.00
23589;BME280;11972;48.078;11.876;2023-05-22T18:37:59;94891.38;;;21.52;100.00
23589;BME280;11972;48.078;11.876;2023-05-22T18:41:59;94901.13;;;21.01;100.00
23589;BME280;11972;48.078;11.876;2023-05-22T18:46:00;94910.84;;;20.54;100.00
23589;BME280;11972;48.078;11.876;2023-05-22T18:50:00;94926.28;;;20.05;100.00
23589;BME280;11972;48.078;11.876;2023-05-22T18:54:01;94927.53;;;19.65;100.00
23589;BME280;11972;48.078;11.876;2023-05-22T18:58:02;94929.78;;;19.29;100.00
23589;BME280;11972;48.078;11.876;2023-05-22T19:02:05;94930.72;;;18.96;100.00
23589;BME280;11972;48.078;11.876;2023-05-22T19:06:06;94933.09;;;18.71;100.00
23589;BME280;11972;48.078;11.876;2023-05-22T19:10:07;94928.75;;;18.48;100.00
23589;BME280;11972;48.078;11.876;2023-05-22T19:14:07;94937.00;;;18.29;100.00
23589;BME280;11972;48.078;11.876;2023-05-22T19:18:08;94939.94;;;18.11;100.00
23589;BME280;11972;48.078;11.876;2023-05-22T19:22:08;94949.09;;;17.98;100.00
23589;BME280;11972;48.078;11.876;2023-05-22T19:26:09;94953.44;;;17.88;100.00
23589;BME280;11972;48.078;11.876;2023-05-22T19:30:09;94952.09;;;17.73;100.00
23589;BME280;11972;48.078;11.876;2023-05-22T19:34:10;94953.19;;;17.60;100.00
23589;BME280;11972;48.078;11.876;2023-05-22T19:38:10;94963.84;;;17.44;100.00
23589;BME280;11972;48.078;11.876;2023-05-22T19:42:10;94968.91;;;17.28;100.00
23589;BME280;11972;48.078;11.876;2023-05-22T19:46:11;94969.84;;;17.22;100.00
23589;BME280;11972;48.078;11.876;2023-05-22T19:50:11;94971.00;;;17.26;100.00
23589;BME280;11972;48.078;11.876;2023-05-22T19:54:17;94975.41;;;17.32;100.00
23589;BME280;11972;48.078;11.876;2023-05-22T19:58:17;94985.19;;;17.44;100.00
23589;BME280;11972;48.078;11.876;2023-05-22T20:02:18;94987.50;;;17.52;100.00
23589;BME280;11972;48.078;11.876;2023-05-22T20:06:19;94995.63;;;17.57;100.00
23589;BME280;11972;48.078;11.876;2023-05-22T20:10:19;94992.38;;;17.55;100.00
23589;BME280;11972;48.078;11.876;2023-05-22T20:14:20;94991.59;;;17.43;100.00
23589;BME280;11972;48.078;11.876;2023-05-22T20:18:21;94987.00;;;17.26;100.00
23589;BME280;11972;48.078;11.876;2023-05-22T20:22:22;94995.75;;;17.10;100.00
23589;BME280;11972;48.078;11.876;2023-05-22T20:26:22;94990.09;;;16.95;100.00
23589;BME280;11972;48.078;11.876;2023-05-22T20:30:23;94996.13;;;16.78;100.00
23589;BME280;11972;48.078;11.876;2023-05-22T20:34:23;95009.69;;;16.65;100.00
23589;BME280;11972;48.078;11.876;2023-05-22T20:38:25;95018.03;;;16.57;100.00
23589;BME280;11972;48.078;11.876;2023-05-22T20:42:27;95014.78;;;16.43;100.00
23589;BME280;11972;48.078;11.876;2023-05-22T20:46:27;95026.47;;;16.30;100.00
23589;BME280;11972;48.078;11.876;2023-05-22T20:50:28;95034.69;;;16.17;100.00
23589;BME280;11972;48.078;11.876;2023-05-22T20:54:31;95025.84;;;16.05;100.00
23589;BME280;11972;48.078;11.876;2023-05-22T20:58:33;95030.47;;;15.98;100.00
23589;BME280;11972;48.078;11.876;2023-05-22T21:02:33;95019.09;;;15.91;100.00